TimeADT,TemperatureF,Dew PointF,Humidity,Sea Level PressureIn,VisibilityMPH,Wind Direction,Wind SpeedMPH,Gust SpeedMPH,PrecipitationIn,Events,Conditions,WindDirDegrees,DateUTC
12:00 AM,57,54,88,30.04,3,East,25.3,,,,,80,2012-10-30 03:00:00
12:00 AM,57.2,53.6,88,30.04,3.5,East,26.5,33.4,N/A,,Mostly Cloudy,80,2012-10-30 03:00:00
1:00 AM,57.2,53.6,88,30.06,4.0,East,25.3,35.7,N/A,,Scattered Clouds,90,2012-10-30 04:00:00
1:53 AM,57.2,53.6,88,30.07,3.5,East,20.7,31.1,N/A,,Mostly Cloudy,90,2012-10-30 04:53:00
2:00 AM,57.2,53.6,88,30.07,3.5,East,25.3,31.1,N/A,,Mostly Cloudy,90,2012-10-30 05:00:00
2:48 AM,57.2,55.4,94,30.09,2.5,East,17.3,23.0,N/A,,Overcast,90,2012-10-30 05:48:00
3:00 AM,58,54,84,30.09,2,East,17.3,,,,Overcast,90,2012-10-30 06:00:00
3:00 AM,57.2,55.4,94,30.09,2.2,East,18.4,-,N/A,,Overcast,90,2012-10-30 06:00:00
3:22 AM,57.2,53.6,88,30.09,3.0,East,17.3,24.2,N/A,,Overcast,90,2012-10-30 06:22:00
4:00 AM,57.2,55.4,94,30.09,3.5,East,20.7,27.6,N/A,,Mostly Cloudy,90,2012-10-30 07:00:00
4:14 AM,57.2,55.4,94,30.08,3.5,East,20.7,27.6,N/A,,Partly Cloudy,90,2012-10-30 07:14:00
5:00 AM,57.2,53.6,88,30.09,3.0,East,19.6,27.6,N/A,,Clear,90,2012-10-30 08:00:00
6:00 AM,57,54,87,30.11,3,East,19.6,,,,,90,2012-10-30 09:00:00
6:00 AM,57.2,53.6,88,30.11,3.5,East,19.6,28.8,N/A,,Clear,90,2012-10-30 09:00:00
7:00 AM,57.2,53.6,88,30.12,4.0,East,20.7,-,N/A,,Scattered Clouds,90,2012-10-30 10:00:00
8:00 AM,57.2,53.6,88,30.14,4.0,East,18.4,24.2,N/A,,Clear,90,2012-10-30 11:00:00
9:00 AM,58,55,85,30.15,5,East,23.0,,,,,90,2012-10-30 12:00:00
9:00 AM,59.0,55.4,88,30.15,5.0,East,23.0,28.8,N/A,,Clear,90,2012-10-30 12:00:00
10:21 AM,59.0,55.4,88,30.16,2.5,East,20.7,-,N/A,,Partly Cloudy,100,2012-10-30 13:21:00
11:00 AM,60.8,55.4,82,30.18,2.5,East,18.4,-,N/A,,Partly Cloudy,100,2012-10-30 14:00:00
11:30 AM,60.8,55.4,82,30.17,3.0,East,17.3,23.0,N/A,,Clear,100,2012-10-30 14:30:00
12:00 PM,61,55,76,30.18,3,East,19.6,,,,,100,2012-10-30 15:00:00
12:00 PM,60.8,55.4,82,30.18,3.0,East,20.7,-,N/A,,Partly Cloudy,100,2012-10-30 15:00:00
1:00 PM,60.8,55.4,82,30.16,3.5,East,24.2,29.9,N/A,,Clear,100,2012-10-30 16:00:00
2:00 PM,60.8,55.4,82,30.16,3.5,East,18.4,27.6,N/A,,Clear,100,2012-10-30 17:00:00
3:00 PM,59,55,83,30.16,3,East,18.4,,,,,100,2012-10-30 18:00:00
3:00 PM,59.0,55.4,88,30.16,3.0,East,18.4,24.2,N/A,,Clear,100,2012-10-30 18:00:00
4:00 PM,59.0,55.4,88,30.17,3.0,East,19.6,-,N/A,,Clear,100,2012-10-30 19:00:00
5:00 PM,59.0,53.6,82,30.17,3.5,East,23.0,-,N/A,,Clear,100,2012-10-30 20:00:00
6:00 PM,57,54,86,30.17,3,East,19.6,,,,,100,2012-10-30 21:00:00
6:00 PM,57.2,53.6,88,30.17,3.5,East,17.3,24.2,N/A,,Clear,100,2012-10-30 21:00:00
7:00 PM,57.2,53.6,88,30.17,3.0,East,18.4,27.6,N/A,,Clear,100,2012-10-30 22:00:00
8:00 PM,57.2,53.6,88,30.16,3.5,East,19.6,-,N/A,,Mostly Cloudy,100,2012-10-30 23:00:00
9:00 PM,57,54,86,30.16,3,ESE,18.4,,,,Overcast,110,2012-10-31 00:00:00
9:00 PM,57.2,53.6,88,30.16,3.5,ESE,19.6,-,N/A,,Overcast,110,2012-10-31 00:00:00
10:00 PM,57.2,53.6,88,30.16,4.0,ESE,18.4,-,N/A,,Mostly Cloudy,110,2012-10-31 01:00:00
11:00 PM,57.2,53.6,88,30.15,4.0,ESE,17.3,-,N/A,,Overcast,110,2012-10-31 02:00:00